Scott, Louisiana
Current Conditions -  °F | °C
As of 1:53 PM on Thursday 18 Dec 2014 (Local Time) from KLFT Reporting Station
Overcast Overcast  
Wind Chill: 66°   Ceiling: 1800
Heat Index: 66°   Visibility: 9mi
Dew Point: 56°   Wind: 7mph
Humidity: 70%   Direction: 20°NNE
Pressure: 30.08"   Gusts: NA
Location:  30.24°N, 92.09°W
Report Text: KLFT 181953Z 02006KT 9SM BKN018 BKN030 OVC060 19/13 A3008 RMK AO2 SLP186 T01890133
Loading
Personal Weather Stations






























Interactive Weather Map New forecast layout! Learn more

10-Day Weather Forecast

Advertisements
Track Severe Weather on mobile